createdAt,value
2024-02-24T00:02:06.718Z,96.42
2024-02-24T00:04:37.410Z,96.59
2024-02-24T00:07:06.844Z,96.54
2024-02-24T00:09:37.387Z,96.51
2024-02-24T00:12:07.305Z,96.58
2024-02-24T00:14:38.243Z,96.65
2024-02-24T00:17:07.542Z,96.68
2024-02-24T00:19:38.159Z,96.77
2024-02-24T00:22:07.462Z,96.78
2024-02-24T00:24:38.025Z,96.86
2024-02-24T00:27:07.397Z,96.83
2024-02-24T00:29:38.101Z,96.71
2024-02-24T00:32:08.050Z,96.70
2024-02-24T00:34:38.473Z,96.72
2024-02-24T00:37:08.180Z,96.72
2024-02-24T00:39:38.904Z,96.66
2024-02-24T00:42:10.881Z,96.81
2024-02-24T00:44:41.507Z,96.83
2024-02-24T00:47:10.913Z,96.67
2024-02-24T00:49:41.528Z,96.78
2024-02-24T00:52:10.840Z,96.82
2024-02-24T00:54:41.881Z,96.81
2024-02-24T00:57:11.173Z,96.82
2024-02-24T00:59:41.963Z,96.70
2024-02-24T01:02:11.463Z,96.56
2024-02-24T01:04:42.147Z,96.40
2024-02-24T01:07:14.100Z,96.23
2024-02-24T01:09:44.640Z,96.13
2024-02-24T01:12:14.259Z,96.08
2024-02-24T01:14:45.423Z,96.02
2024-02-24T01:17:15.304Z,95.80
2024-02-24T01:19:45.819Z,95.69
2024-02-24T01:22:15.234Z,95.54
2024-02-24T01:24:45.757Z,95.51
2024-02-24T01:27:15.160Z,95.52
2024-02-24T01:29:45.931Z,95.42
2024-02-24T01:32:15.419Z,95.36
2024-02-24T01:34:47.089Z,95.24
2024-02-24T01:37:16.471Z,95.29
2024-02-24T01:39:47.079Z,95.29
2024-02-24T01:42:16.381Z,95.16
2024-02-24T01:44:47.214Z,95.12
2024-02-24T01:47:18.183Z,95.06
2024-02-24T01:49:48.791Z,94.95
2024-02-24T01:52:18.096Z,94.89
2024-02-24T01:54:48.722Z,94.88
2024-02-24T01:57:18.329Z,94.77
2024-02-24T01:59:49.269Z,94.82
2024-02-24T02:02:18.627Z,94.78
2024-02-24T02:04:49.246Z,94.82
2024-02-24T02:07:18.696Z,94.81
2024-02-24T02:09:56.665Z,94.79
2024-02-24T02:12:28.015Z,94.88
2024-02-24T02:14:57.350Z,94.91
2024-02-24T02:17:28.284Z,94.88
2024-02-24T02:20:04.372Z,95.07
2024-02-24T02:22:35.290Z,95.10
2024-02-24T02:25:05.012Z,95.17
2024-02-24T02:27:35.644Z,95.20
2024-02-24T02:30:05.768Z,95.26
2024-02-24T02:32:36.580Z,95.22
2024-02-24T02:35:07.838Z,95.16
2024-02-24T02:37:38.969Z,95.07
2024-02-24T02:40:09.057Z,95.08
2024-02-24T02:42:39.627Z,95.13
2024-02-24T02:45:09.225Z,95.13
2024-02-24T02:47:39.959Z,95.07
2024-02-24T02:50:09.944Z,95.00
2024-02-24T02:52:40.505Z,94.97
2024-02-24T02:55:10.225Z,94.92
2024-02-24T02:57:40.740Z,94.96
2024-02-24T03:00:10.751Z,94.88
2024-02-24T03:02:41.439Z,94.92
2024-02-24T03:05:10.883Z,94.94
2024-02-24T03:07:41.528Z,94.78
2024-02-24T03:10:11.260Z,94.91
2024-02-24T03:12:42.206Z,94.92
2024-02-24T03:15:11.819Z,95.01
2024-02-24T03:17:42.485Z,95.01
2024-02-24T03:20:12.642Z,94.94
2024-02-24T03:22:43.882Z,94.66
2024-02-24T03:25:13.640Z,94.31
2024-02-24T03:27:44.329Z,93.69
2024-02-24T03:30:14.099Z,93.62
2024-02-24T03:32:44.723Z,93.46
2024-02-24T03:35:14.295Z,93.32
2024-02-24T03:37:44.894Z,93.24
2024-02-24T03:40:14.728Z,92.74
2024-02-24T03:42:45.243Z,92.54
2024-02-24T03:45:14.744Z,92.27
2024-02-24T03:47:45.401Z,91.87
2024-02-24T03:50:15.004Z,91.55
2024-02-24T03:52:45.814Z,91.32
2024-02-24T03:55:15.117Z,90.84
2024-02-24T03:57:45.752Z,90.32
2024-02-24T04:00:15.764Z,89.79
2024-02-24T04:02:46.437Z,89.67
2024-02-24T04:05:15.943Z,89.59
2024-02-24T04:07:46.626Z,89.41
2024-02-24T04:10:16.036Z,89.39
2024-02-24T04:12:46.675Z,89.48
2024-02-24T04:15:20.769Z,89.75
2024-02-24T04:17:51.541Z,90.07
2024-02-24T04:20:21.574Z,90.41
2024-02-24T04:22:52.268Z,90.80
2024-02-24T04:25:21.559Z,91.25
2024-02-24T04:27:52.286Z,89.88
2024-02-24T04:30:21.600Z,89.84
2024-02-24T04:32:52.345Z,89.86
2024-02-24T04:35:21.872Z,89.97
2024-02-24T04:37:52.568Z,90.47
2024-02-24T04:40:21.871Z,90.99
2024-02-24T04:42:52.506Z,91.55
2024-02-24T04:45:21.755Z,92.03
2024-02-24T04:47:52.805Z,91.55
2024-02-24T04:50:22.144Z,91.33
2024-02-24T04:52:53.552Z,91.62
2024-02-24T04:55:22.949Z,91.93
2024-02-24T04:57:53.524Z,92.17
2024-02-24T05:00:22.842Z,92.76
2024-02-24T05:02:54.317Z,93.09
2024-02-24T05:05:24.021Z,93.28
2024-02-24T05:07:54.886Z,93.43
2024-02-24T05:10:24.420Z,93.62
2024-02-24T05:12:56.552Z,93.76
2024-02-24T05:15:26.602Z,93.63
2024-02-24T05:17:57.539Z,93.58
2024-02-24T05:20:27.057Z,93.76
2024-02-24T05:22:57.572Z,93.62
2024-02-24T05:25:26.870Z,93.80
2024-02-24T05:27:57.809Z,93.95
2024-02-24T05:30:27.224Z,93.97
2024-02-24T05:32:59.067Z,93.94
2024-02-24T05:35:28.693Z,94.12
2024-02-24T05:37:59.518Z,94.24
2024-02-24T05:40:28.913Z,94.21
2024-02-24T05:42:59.441Z,94.16
2024-02-24T05:45:28.745Z,94.25
2024-02-24T05:47:59.527Z,94.14
2024-02-24T05:50:29.098Z,93.87
2024-02-24T05:52:59.829Z,93.77
2024-02-24T05:55:29.117Z,93.68
2024-02-24T05:57:59.953Z,93.70
2024-02-24T06:00:29.770Z,93.70
2024-02-24T06:03:00.757Z,93.83
2024-02-24T06:05:30.662Z,93.62
2024-02-24T06:08:02.179Z,93.60
2024-02-24T06:10:31.675Z,93.34
2024-02-24T06:13:02.200Z,93.29
2024-02-24T06:15:31.923Z,93.10
2024-02-24T06:18:02.821Z,92.93
2024-02-24T06:20:32.460Z,93.26
2024-02-24T06:23:02.987Z,93.21
2024-02-24T06:25:32.387Z,93.20
2024-02-24T06:28:03.737Z,93.13
2024-02-24T06:30:33.035Z,93.13
2024-02-24T06:33:03.694Z,92.69
2024-02-24T06:35:33.520Z,92.50
2024-02-24T06:38:04.623Z,92.46
2024-02-24T06:40:41.319Z,92.34
2024-02-24T06:43:17.159Z,91.98
2024-02-24T06:45:46.853Z,91.89
2024-02-24T06:48:17.664Z,91.95
2024-02-24T06:50:47.551Z,92.11
2024-02-24T06:53:18.119Z,91.94
2024-02-24T06:55:47.396Z,91.89
2024-02-24T06:58:17.979Z,91.57
2024-02-24T07:00:47.364Z,91.30
2024-02-24T07:03:20.260Z,91.15
2024-02-24T07:05:49.802Z,91.34
2024-02-24T07:08:20.496Z,90.73
2024-02-24T07:10:50.112Z,90.13
2024-02-24T07:13:20.825Z,89.86
2024-02-24T07:15:50.268Z,89.83
2024-02-24T07:18:20.808Z,89.24
2024-02-24T07:20:51.574Z,88.18
2024-02-24T07:23:22.248Z,87.10
2024-02-24T07:25:51.624Z,86.60
2024-02-24T07:28:22.254Z,86.40
2024-02-24T07:30:51.855Z,84.70
2024-02-24T07:33:23.295Z,82.48
2024-02-24T07:35:52.790Z,81.31
2024-02-24T07:38:23.449Z,79.80
2024-02-24T07:40:52.760Z,77.32
2024-02-24T07:43:23.686Z,73.62
2024-02-24T07:45:53.090Z,69.34
2024-02-24T07:48:23.747Z,64.05
2024-02-24T07:50:53.412Z,58.55
2024-02-24T07:53:24.568Z,55.21
2024-02-24T07:55:54.135Z,52.47
2024-02-24T07:58:24.808Z,49.63
2024-02-24T08:00:54.420Z,48.01
2024-02-24T08:03:25.159Z,46.25
2024-02-24T08:05:54.623Z,41.57
2024-02-24T08:08:25.389Z,41.21
2024-02-24T08:10:55.366Z,40.57
2024-02-24T08:13:27.063Z,39.68
2024-02-24T08:15:56.456Z,38.82
2024-02-24T08:18:27.223Z,37.94
2024-02-24T08:20:56.736Z,38.81
2024-02-24T08:23:27.691Z,38.68
2024-02-24T08:25:58.934Z,39.39
2024-02-24T08:28:30.031Z,39.69
2024-02-24T08:31:02.605Z,39.72
2024-02-24T08:33:33.491Z,39.09
2024-02-24T08:36:03.066Z,38.24
2024-02-24T08:38:33.727Z,38.69
2024-02-24T08:41:03.194Z,39.03
2024-02-24T08:43:33.816Z,38.99
2024-02-24T08:46:04.345Z,40.04
2024-02-24T08:48:35.628Z,40.08
2024-02-24T08:51:08.097Z,38.97
2024-02-24T08:53:39.124Z,38.85
2024-02-24T08:56:08.511Z,37.99
2024-02-24T08:58:39.236Z,36.42
2024-02-24T09:01:08.675Z,35.98
2024-02-24T09:03:39.513Z,35.08
2024-02-24T09:06:09.113Z,33.54
2024-02-24T09:08:39.864Z,34.09
2024-02-24T09:11:09.308Z,34.63
2024-02-24T09:13:40.364Z,34.88
2024-02-24T09:16:10.071Z,34.82
2024-02-24T09:18:40.682Z,36.67
2024-02-24T09:21:12.867Z,37.34
2024-02-24T09:23:43.921Z,38.79
2024-02-24T09:26:13.394Z,38.60
2024-02-24T09:28:44.144Z,39.80
2024-02-24T09:31:13.446Z,40.88
2024-02-24T09:33:44.372Z,42.06
2024-02-24T09:36:13.906Z,43.08
2024-02-24T09:38:44.433Z,43.96
2024-02-24T09:41:13.741Z,44.23
2024-02-24T09:43:44.450Z,44.22
2024-02-24T09:46:13.764Z,44.31
2024-02-24T09:48:46.274Z,44.50
2024-02-24T09:51:15.732Z,43.23
2024-02-24T09:53:46.607Z,42.52
2024-02-24T09:56:19.488Z,41.41
2024-02-24T09:58:50.179Z,41.18
2024-02-24T10:01:19.623Z,41.13
2024-02-24T10:03:50.480Z,41.54
2024-02-24T10:06:20.153Z,40.89
2024-02-24T10:08:50.956Z,40.93
2024-02-24T10:11:20.441Z,40.57
2024-02-24T10:13:51.106Z,40.22
2024-02-24T10:16:21.315Z,39.75
2024-02-24T10:18:51.962Z,39.93
2024-02-24T10:21:21.571Z,40.83
2024-02-24T10:23:52.248Z,40.48
2024-02-24T10:26:21.727Z,41.66
2024-02-24T10:28:52.435Z,42.95
2024-02-24T10:31:28.570Z,43.53
2024-02-24T10:33:59.424Z,44.82
2024-02-24T10:36:29.749Z,45.01
2024-02-24T10:39:00.324Z,44.86
2024-02-24T10:41:31.348Z,44.65
2024-02-24T10:44:10.628Z,43.12
2024-02-24T10:46:50.992Z,44.50
2024-02-24T10:49:20.623Z,44.51
2024-02-24T10:51:51.487Z,45.42
2024-02-24T10:54:22.938Z,45.64
2024-02-24T10:56:58.910Z,46.42
2024-02-24T10:59:30.552Z,46.51
2024-02-24T11:02:04.220Z,46.70
2024-02-24T11:04:38.374Z,46.45
2024-02-24T11:07:08.940Z,47.28
2024-02-24T11:09:40.737Z,47.09
2024-02-24T11:12:13.210Z,47.11
2024-02-24T11:14:45.754Z,46.69
2024-02-24T11:17:54.521Z,46.12
2024-02-24T11:20:40.964Z,46.29
2024-02-24T11:23:33.253Z,46.10
2024-02-24T11:26:22.844Z,46.80
2024-02-24T11:29:07.374Z,46.07
2024-02-24T11:31:38.213Z,46.82
2024-02-24T11:34:12.445Z,47.52
2024-02-24T11:36:43.257Z,48.86
2024-02-24T11:39:18.603Z,49.04
2024-02-24T11:41:49.496Z,49.05
2024-02-24T11:44:18.847Z,49.48
2024-02-24T11:46:49.833Z,48.96
2024-02-24T11:49:19.210Z,47.98
2024-02-24T11:51:49.920Z,48.55
2024-02-24T11:54:19.211Z,49.39
2024-02-24T11:56:49.998Z,50.01
2024-02-24T11:59:19.668Z,49.59
2024-02-24T12:01:50.455Z,49.68
2024-02-24T12:04:24.644Z,49.54
2024-02-24T12:06:55.519Z,50.71
2024-02-24T12:09:25.247Z,51.30
2024-02-24T12:11:56.948Z,50.73
2024-02-24T12:14:30.741Z,50.04
2024-02-24T12:17:01.433Z,50.60
2024-02-24T12:19:36.784Z,50.72
2024-02-24T12:22:10.590Z,50.64
2024-02-24T12:24:40.838Z,51.31
2024-02-24T12:27:11.670Z,51.15
2024-02-24T12:29:41.082Z,50.62
2024-02-24T12:32:11.686Z,49.99
2024-02-24T12:34:41.012Z,50.66
2024-02-24T12:37:11.812Z,50.38
2024-02-24T12:39:42.449Z,50.23
2024-02-24T12:42:13.072Z,50.23
2024-02-24T12:44:43.008Z,50.55
2024-02-24T12:47:13.637Z,50.16
2024-02-24T12:49:42.955Z,50.63
2024-02-24T12:52:13.856Z,50.67
2024-02-24T12:54:43.157Z,50.80
2024-02-24T12:57:13.891Z,50.19
2024-02-24T12:59:43.665Z,50.49
2024-02-24T13:02:14.368Z,50.82
2024-02-24T13:04:43.741Z,50.75
2024-02-24T13:07:14.260Z,50.71
2024-02-24T13:09:43.557Z,50.13
2024-02-24T13:12:14.348Z,50.50
2024-02-24T13:14:44.444Z,51.02
2024-02-24T13:17:16.061Z,50.59
2024-02-24T13:19:45.411Z,50.22
2024-02-24T13:22:16.409Z,50.26
2024-02-24T13:24:46.179Z,50.56
2024-02-24T13:27:16.748Z,50.82
2024-02-24T13:29:46.501Z,50.99
2024-02-24T13:32:17.104Z,50.87
2024-02-24T13:34:46.641Z,51.09
2024-02-24T13:37:17.917Z,50.90
2024-02-24T13:39:48.250Z,50.74
2024-02-24T13:42:18.790Z,50.52
2024-02-24T13:44:48.140Z,49.96
2024-02-24T13:47:19.451Z,50.83
2024-02-24T13:49:48.833Z,51.07
2024-02-24T13:52:19.484Z,51.49
2024-02-24T13:54:48.769Z,52.16
2024-02-24T13:57:19.402Z,52.17
2024-02-24T13:59:48.867Z,51.65
2024-02-24T14:02:19.690Z,51.75
2024-02-24T14:04:49.144Z,51.97
2024-02-24T14:07:20.293Z,52.43
2024-02-24T14:09:49.595Z,52.35
2024-02-24T14:12:20.270Z,51.33
2024-02-24T14:14:49.732Z,51.50
2024-02-24T14:17:20.695Z,51.38
2024-02-24T14:19:50.044Z,50.50
2024-02-24T14:22:21.112Z,50.85
2024-02-24T14:24:50.404Z,51.35
2024-02-24T14:27:21.050Z,51.78
2024-02-24T14:29:50.462Z,51.68
2024-02-24T14:32:21.141Z,51.45
2024-02-24T14:34:51.768Z,51.97
2024-02-24T14:37:22.716Z,52.51
2024-02-24T14:39:52.361Z,52.82
2024-02-24T14:42:22.980Z,52.69
2024-02-24T14:44:52.756Z,53.04
2024-02-24T14:47:25.736Z,53.24
2024-02-24T14:49:55.219Z,53.15
2024-02-24T14:52:26.234Z,53.48
2024-02-24T14:54:55.617Z,53.93
2024-02-24T14:57:26.146Z,54.18
2024-02-24T14:59:55.697Z,54.37
2024-02-24T15:02:35.973Z,54.55
2024-02-24T15:05:17.214Z,54.89
2024-02-24T15:07:46.492Z,55.05
2024-02-24T15:10:17.459Z,55.30
2024-02-24T15:12:48.009Z,55.05
2024-02-24T15:15:19.884Z,55.72
2024-02-24T15:17:49.855Z,56.13
2024-02-24T15:20:20.754Z,56.08
2024-02-24T15:22:51.623Z,56.73
2024-02-24T15:25:22.615Z,57.03
2024-02-24T15:27:52.255Z,57.36
2024-02-24T15:30:23.268Z,57.42
2024-02-24T15:32:57.985Z,57.46
2024-02-24T15:35:28.683Z,58.12
2024-02-24T15:37:59.304Z,58.73
2024-02-24T15:40:33.596Z,58.71
2024-02-24T15:43:06.282Z,58.97
2024-02-24T15:45:35.793Z,59.45
2024-02-24T15:48:07.329Z,59.59
2024-02-24T15:50:37.030Z,59.43
2024-02-24T15:53:07.855Z,59.93
2024-02-24T15:55:37.366Z,60.28
2024-02-24T15:58:08.022Z,60.46
2024-02-24T16:00:38.237Z,60.71
2024-02-24T16:03:08.871Z,61.07
2024-02-24T16:05:38.549Z,61.46
2024-02-24T16:08:11.768Z,61.86
2024-02-24T16:10:44.168Z,62.29
2024-02-24T16:13:15.466Z,62.49
2024-02-24T16:15:45.308Z,62.91
2024-02-24T16:18:16.828Z,63.07
2024-02-24T16:20:46.085Z,63.32
2024-02-24T16:23:17.666Z,63.69
2024-02-24T16:25:47.115Z,64.05
2024-02-24T16:28:18.275Z,64.37
2024-02-24T16:30:47.702Z,64.76
2024-02-24T16:33:18.407Z,65.16
2024-02-24T16:35:47.931Z,65.51
2024-02-24T16:38:18.972Z,66.24
2024-02-24T16:40:48.963Z,66.79
2024-02-24T16:43:19.476Z,67.20
2024-02-24T16:45:48.899Z,67.54
2024-02-24T16:48:19.827Z,67.64
2024-02-24T16:50:49.251Z,67.90
2024-02-24T16:53:20.009Z,68.15
2024-02-24T16:55:49.362Z,68.67
2024-02-24T16:58:19.896Z,69.11
2024-02-24T17:00:49.616Z,69.69
2024-02-24T17:03:20.172Z,69.80
2024-02-24T17:05:50.764Z,70.26
2024-02-24T17:08:21.651Z,70.47
2024-02-24T17:10:52.360Z,70.77
2024-02-24T17:13:23.140Z,71.03
2024-02-24T17:15:52.568Z,71.24
2024-02-24T17:18:30.903Z,71.42
2024-02-24T17:21:06.486Z,71.67
2024-02-24T17:23:38.762Z,72.07
2024-02-24T17:26:10.486Z,72.11
2024-02-24T17:28:39.856Z,72.23
2024-02-24T17:31:14.601Z,72.50
2024-02-24T17:33:47.614Z,72.75
2024-02-24T17:36:17.650Z,72.76
2024-02-24T17:38:48.558Z,72.94
2024-02-24T17:41:20.287Z,73.01
2024-02-24T17:43:51.113Z,73.16
2024-02-24T17:46:20.417Z,73.27
2024-02-24T17:48:51.743Z,73.31
2024-02-24T17:51:21.261Z,73.21
2024-02-24T17:53:51.811Z,73.17
2024-02-24T17:56:21.142Z,73.36
2024-02-24T17:58:51.837Z,73.39
2024-02-24T18:01:21.153Z,73.51
2024-02-24T18:03:51.809Z,73.66
2024-02-24T18:06:21.307Z,73.85
2024-02-24T18:08:52.546Z,73.92
2024-02-24T18:11:24.117Z,74.14
2024-02-24T18:13:54.900Z,74.26
2024-02-24T18:16:24.359Z,74.42
2024-02-24T18:18:55.487Z,74.43
2024-02-24T18:21:25.052Z,74.64
2024-02-24T18:23:55.559Z,74.73
2024-02-24T18:26:25.117Z,74.82
2024-02-24T18:29:02.475Z,75.05
2024-02-24T18:31:33.313Z,75.13
2024-02-24T18:34:02.800Z,75.28
2024-02-24T18:36:33.745Z,75.24
2024-02-24T18:39:03.231Z,75.16
2024-02-24T18:41:34.713Z,75.17
2024-02-24T18:44:04.710Z,75.28
2024-02-24T18:46:35.240Z,75.31
2024-02-24T18:49:04.848Z,75.35
2024-02-24T18:51:35.591Z,75.47
2024-02-24T18:54:05.210Z,75.68
2024-02-24T18:56:36.051Z,75.96
2024-02-24T18:59:06.778Z,76.08
2024-02-24T19:01:37.320Z,76.24
2024-02-24T19:04:06.658Z,76.47
2024-02-24T19:06:37.461Z,76.75
2024-02-24T19:09:07.576Z,76.89
2024-02-24T19:11:38.642Z,77.17
2024-02-24T19:14:08.083Z,77.38
2024-02-24T19:16:39.419Z,77.50
2024-02-24T19:19:09.046Z,77.74
2024-02-24T19:21:39.982Z,77.86
2024-02-24T19:24:14.957Z,78.09
2024-02-24T19:26:45.948Z,78.09
2024-02-24T19:29:15.776Z,78.20
2024-02-24T19:31:46.822Z,78.19
2024-02-24T19:34:17.859Z,78.19
2024-02-24T19:36:48.592Z,78.33
2024-02-24T19:39:19.429Z,78.20
2024-02-24T19:41:50.489Z,78.46
2024-02-24T19:44:21.705Z,79.02
2024-02-24T19:46:52.634Z,79.60
2024-02-24T19:49:22.353Z,80.22
2024-02-24T19:51:53.036Z,80.69
2024-02-24T19:54:22.791Z,81.09
2024-02-24T19:56:53.521Z,81.54
2024-02-24T19:59:22.979Z,81.93
2024-02-24T20:01:53.860Z,82.16
2024-02-24T20:04:23.343Z,82.27
2024-02-24T20:06:54.077Z,82.72
2024-02-24T20:09:24.101Z,83.57
2024-02-24T20:11:54.844Z,84.13
2024-02-24T20:14:24.700Z,84.69
2024-02-24T20:16:55.300Z,84.81
2024-02-24T20:19:25.104Z,85.11
2024-02-24T20:21:55.843Z,85.43
2024-02-24T20:24:25.139Z,85.69
2024-02-24T20:26:55.813Z,85.73
2024-02-24T20:29:25.329Z,86.06
2024-02-24T20:31:56.016Z,86.53
2024-02-24T20:34:25.873Z,86.92
2024-02-24T20:36:56.561Z,87.09
2024-02-24T20:39:25.854Z,87.04
2024-02-24T20:41:56.757Z,87.03
2024-02-24T20:44:26.319Z,87.00
2024-02-24T20:46:56.938Z,87.06
2024-02-24T20:49:26.661Z,87.26
2024-02-24T20:51:59.758Z,87.43
2024-02-24T20:54:36.237Z,87.58
2024-02-24T20:57:08.714Z,87.90
2024-02-24T20:59:38.287Z,87.94
2024-02-24T21:02:08.950Z,88.21
2024-02-24T21:04:39.821Z,88.22
2024-02-24T21:07:10.491Z,88.24
2024-02-24T21:09:39.773Z,88.32
2024-02-24T21:12:12.113Z,88.41
2024-02-24T21:14:41.707Z,88.46
2024-02-24T21:17:12.920Z,88.31
2024-02-24T21:19:42.266Z,88.39
2024-02-24T21:22:12.858Z,88.35
2024-02-24T21:24:42.235Z,88.40
2024-02-24T21:27:12.988Z,88.45
2024-02-24T21:29:42.507Z,88.36
2024-02-24T21:32:13.101Z,88.39
2024-02-24T21:34:42.516Z,88.41
2024-02-24T21:37:13.588Z,88.58
2024-02-24T21:39:43.062Z,88.49
2024-02-24T21:42:15.076Z,88.57
2024-02-24T21:44:45.280Z,88.55
2024-02-24T21:47:15.854Z,88.65
2024-02-24T21:49:45.293Z,88.60
2024-02-24T21:52:15.892Z,89.23
2024-02-24T21:54:45.203Z,89.44
2024-02-24T21:57:16.270Z,89.63
2024-02-24T21:59:45.659Z,89.78
2024-02-24T22:02:16.207Z,89.56
2024-02-24T22:04:45.683Z,89.32
2024-02-24T22:07:18.869Z,88.83
2024-02-24T22:09:48.446Z,88.16
2024-02-24T22:12:19.170Z,87.50
2024-02-24T22:14:48.556Z,87.13
2024-02-24T22:17:19.902Z,86.73
2024-02-24T22:19:49.686Z,86.36
2024-02-24T22:22:20.397Z,85.98
2024-02-24T22:24:49.690Z,85.68
2024-02-24T22:27:20.290Z,85.38
2024-02-24T22:29:55.127Z,85.09
2024-02-24T22:32:33.576Z,84.88
2024-02-24T22:35:03.098Z,84.61
2024-02-24T22:37:34.116Z,84.57
2024-02-24T22:40:06.786Z,84.35
2024-02-24T22:42:37.518Z,84.10
2024-02-24T22:45:08.463Z,83.97
2024-02-24T22:47:39.164Z,83.90
2024-02-24T22:50:09.017Z,83.81
2024-02-24T22:52:39.564Z,83.82
2024-02-24T22:55:09.961Z,83.80
2024-02-24T22:57:40.616Z,83.77
2024-02-24T23:00:14.812Z,83.71
2024-02-24T23:02:45.683Z,83.71
2024-02-24T23:05:14.992Z,83.66
2024-02-24T23:07:45.588Z,83.54
2024-02-24T23:10:14.876Z,83.53
2024-02-24T23:12:45.586Z,83.51
2024-02-24T23:15:15.073Z,83.55
2024-02-24T23:17:46.139Z,83.52
2024-02-24T23:20:15.348Z,83.51
2024-02-24T23:22:46.289Z,83.53
2024-02-24T23:25:19.684Z,83.56
2024-02-24T23:27:50.216Z,83.59
2024-02-24T23:30:20.128Z,83.68
2024-02-24T23:32:50.839Z,83.66
2024-02-24T23:35:20.948Z,83.71
2024-02-24T23:37:51.635Z,83.72
2024-02-24T23:40:21.009Z,83.74
2024-02-24T23:42:51.640Z,83.77
2024-02-24T23:45:20.938Z,83.71
2024-02-24T23:47:51.740Z,83.62
2024-02-24T23:50:22.765Z,83.66
2024-02-24T23:52:53.446Z,83.57
2024-02-24T23:55:22.752Z,83.62
2024-02-24T23:57:53.278Z,83.66
